Terminal Aerodrome Forecast
Issued by NWS

Home | Current Version | Previous Version | Text Only | Print | Product List | Glossary On
Versions: 1 2 3 4 5 6 7 8 9 10 11 12 13 14 15
000
FTPA31 PHFO 191736
TAFHOG
TAF
PHOG 191736Z 1918/2018 05007KT P6SM VCSH FEW035 SCT060
     FM192000 05017G25KT P6SM FEW035 SCT060
     FM200500 05010KT P6SM FEW030 SCT050=

USA.gov is the U.S. government's official web portal to all federal, state and local government web resources and services.